Time;durP1;ratioP1;P1;durP2;ratioP2;P2;SDS_P1;SDS_P2;PMS_P1;PMS_P2;Temp;Humidity;BMP_temperature;BMP_pressure;BME280_temperature;BME280_humidity;BME280_pressure;Samples;Min_cycle;Max_cycle;Signal;HPM_P1;HPM_P2
2024/02/21 00:00:21;;;;;;;;;;;;;;;6.71;85.52;100416.81;5115721;28;20281;-65
2024/02/21 00:02:51;;;;;;;;;;;;;;;6.68;85.27;100409.13;5115638;28;20258;-65
2024/02/21 00:05:20;;;;;;;;;;;;;;;6.65;85.54;100425.94;5117158;28;19927;-65
2024/02/21 00:07:48;;;;;;;;;;;;;;;6.61;85.05;100414.84;5117101;28;19920;-65
2024/02/21 00:10:18;;;;;;;;;;;;;;;6.58;84.79;100413.91;5115860;28;19926;-65
2024/02/21 00:12:46;;;;;;;;;;;;;;;6.53;84.99;100413.78;5117036;28;19928;-65
2024/02/21 00:15:15;;;;;;;;;;;;;;;6.49;84.74;100419.59;5115892;28;19972;-66
2024/02/21 00:17:44;;;;;;;;;;;;;;;6.45;85.55;100422.88;5116915;27;19920;-65
2024/02/21 00:20:14;;;;;;;;;;;;;;;6.37;85.66;100414.19;5116653;28;20453;-65
2024/02/21 00:22:43;;;;;;;;;;;;;;;6.36;85.75;100417.53;5117119;28;19919;-65
2024/02/21 00:25:11;;;;;;;;;;;;;;;6.31;85.66;100416.53;5115110;28;20448;-65
2024/02/21 00:27:40;;;;;;;;;;;;;;;6.27;85.33;100417.28;5116054;28;19931;-65
2024/02/21 00:30:08;;;;;;;;;;;;;;;6.25;85.47;100413.84;5115610;28;19926;-64
2024/02/21 00:32:37;;;;;;;;;;;;;;;6.26;85.95;100410.50;5115454;28;19973;-65
2024/02/21 00:35:06;;;;;;;;;;;;;;;6.24;86.32;100399.44;5116622;28;19920;-65
2024/02/21 00:37:36;;;;;;;;;;;;;;;6.22;85.53;100393.47;5116590;28;19962;-65
2024/02/21 00:40:05;;;;;;;;;;;;;;;6.27;86.28;100402.06;5116313;28;19924;-65
2024/02/21 00:42:34;;;;;;;;;;;;;;;6.28;85.98;100392.78;5116530;28;19973;-66
2024/02/21 00:45:02;;;;;;;;;;;;;;;6.28;86.22;100398.72;5116273;28;19920;-65
2024/02/21 00:47:31;;;;;;;;;;;;;;;6.31;86.29;100396.25;5116177;28;19920;-66
2024/02/21 00:49:59;;;;;;;;;;;;;;;6.33;86.63;100399.72;5116077;28;19923;-65
2024/02/21 00:52:28;;;;;;;;;;;;;;;6.32;86.30;100395.44;5116641;28;19926;-65
2024/02/21 00:54:58;;;;;;;;;;;;;;;6.31;87.13;100395.41;5116211;28;20018;-65
2024/02/21 00:57:27;;;;;;;;;;;;;;;6.32;87.30;100389.50;5116562;28;20031;-66
2024/02/21 00:59:55;;;;;;;;;;;;;;;6.33;87.37;100391.25;5115938;28;19926;-66
2024/02/21 01:02:23;;;;;;;;;;;;;;;6.31;86.40;100388.66;5116083;28;19920;-65
2024/02/21 01:04:52;;;;;;;;;;;;;;;6.29;87.15;100394.50;5115923;28;19923;-65
2024/02/21 01:07:20;;;;;;;;;;;;;;;6.28;86.98;100387.72;5115792;28;19920;-66
2024/02/21 01:09:50;;;;;;;;;;;;;;;6.28;87.04;100383.53;5115952;28;19919;-66
2024/02/21 01:12:20;;;;;;;;;;;;;;;6.26;87.05;100387.69;5115042;28;20315;-66
2024/02/21 01:14:49;;;;;;;;;;;;;;;6.16;86.63;100388.25;5115804;28;20011;-65
2024/02/21 01:17:17;;;;;;;;;;;;;;;6.11;87.25;100382.19;5114654;28;19945;-65
2024/02/21 01:19:47;;;;;;;;;;;;;;;6.08;86.51;100380.44;5115564;28;19942;-65
2024/02/21 01:22:15;;;;;;;;;;;;;;;6.05;86.74;100376.94;5115776;28;19919;-66
2024/02/21 01:24:44;;;;;;;;;;;;;;;5.99;87.13;100380.16;5114044;28;20014;-66
2024/02/21 01:27:12;;;;;;;;;;;;;;;6.00;87.57;100381.00;5115318;28;19930;-65
2024/02/21 01:29:42;;;;;;;;;;;;;;;6.00;86.96;100381.00;5115604;28;19919;-66
2024/02/21 01:32:11;;;;;;;;;;;;;;;6.00;87.29;100378.47;5115469;28;20284;-65
2024/02/21 01:34:39;;;;;;;;;;;;;;;6.02;87.38;100374.34;5115522;28;19920;-65
2024/02/21 01:37:07;;;;;;;;;;;;;;;6.03;87.72;100376.03;5115070;28;19920;-65
2024/02/21 01:39:36;;;;;;;;;;;;;;;6.03;87.70;100376.03;5114309;28;19919;-65
2024/02/21 01:42:04;;;;;;;;;;;;;;;6.03;87.90;100370.97;5115241;27;19924;-64
2024/02/21 01:44:33;;;;;;;;;;;;;;;6.01;87.79;100363.34;5115220;28;19924;-65
2024/02/21 01:47:03;;;;;;;;;;;;;;;6.00;87.71;100365.81;5114860;28;19931;-65
2024/02/21 01:49:32;;;;;;;;;;;;;;;5.98;87.31;100357.31;5114961;28;19923;-65
2024/02/21 01:52:01;;;;;;;;;;;;;;;5.97;87.73;100365.75;5115202;28;19971;-65
2024/02/21 01:54:30;;;;;;;;;;;;;;;5.92;87.79;100362.22;5113983;28;19965;-66
2024/02/21 01:56:59;;;;;;;;;;;;;;;5.90;87.06;100363.84;5115055;28;19919;-65
2024/02/21 01:59:28;;;;;;;;;;;;;;;5.87;87.67;100358.69;5114736;28;20365;-65
2024/02/21 02:01:57;;;;;;;;;;;;;;;5.87;87.84;100364.63;5113904;28;19919;-65
2024/02/21 02:04:28;;;;;;;;;;;;;;;5.85;87.29;100367.91;5115031;28;20035;-65
2024/02/21 02:06:57;;;;;;;;;;;;;;;5.84;87.78;100364.53;5113756;28;20029;-65
2024/02/21 02:09:25;;;;;;;;;;;;;;;5.87;87.77;100358.69;5114969;28;20019;-65
2024/02/21 02:11:54;;;;;;;;;;;;;;;5.90;87.87;100354.56;5115193;28;20258;-64
2024/02/21 02:14:22;;;;;;;;;;;;;;;5.91;88.10;100347.81;5114806;28;20281;-65
2024/02/21 02:16:51;;;;;;;;;;;;;;;5.92;88.19;100344.47;5114434;28;19919;-65
2024/02/21 02:19:19;;;;;;;;;;;;;;;5.92;88.47;100352.09;5114845;28;19965;-64
2024/02/21 02:21:55;;;;;;;;;;;;;;;5.89;87.43;100355.38;5114363;28;19919;-65
2024/02/21 02:24:26;;;;;;;;;;;;;;;5.91;88.14;100355.41;5114451;28;19919;-65
2024/02/21 02:26:55;;;;;;;;;;;;;;;5.91;88.18;100350.34;5113465;28;19927;-64
2024/02/21 02:29:23;;;;;;;;;;;;;;;5.86;88.07;100351.88;5114752;28;20014;-65
2024/02/21 02:31:52;;;;;;;;;;;;;;;5.85;88.41;100345.13;5114715;28;19927;-65
2024/02/21 02:34:20;;;;;;;;;;;;;;;5.87;88.30;100340.97;5114713;28;19966;-65
2024/02/21 02:36:49;;;;;;;;;;;;;;;5.87;88.47;100343.50;5114521;28;20423;-65
2024/02/21 02:39:17;;;;;;;;;;;;;;;5.83;88.39;100336.59;5114300;28;20377;-65
2024/02/21 02:41:47;;;;;;;;;;;;;;;5.86;87.97;100332.50;5112920;28;19920;-65
2024/02/21 02:44:16;;;;;;;;;;;;;;;5.86;88.59;100331.63;5113278;28;19920;-65
2024/02/21 02:46:44;;;;;;;;;;;;;;;5.84;88.44;100328.16;5114561;28;19919;-64
2024/02/21 02:49:13;;;;;;;;;;;;;;;5.86;88.55;100326.56;5114497;28;20015;-65
2024/02/21 02:51:42;;;;;;;;;;;;;;;5.84;88.58;100328.16;5116539;28;19926;-65
2024/02/21 02:54:11;;;;;;;;;;;;;;;5.80;88.86;100332.31;5117359;28;19919;-65
2024/02/21 02:56:39;;;;;;;;;;;;;;;5.77;88.61;100333.88;5117378;28;19942;-65
2024/02/21 02:59:09;;;;;;;;;;;;;;;5.72;88.17;100337.94;5118530;28;19926;-65
2024/02/21 03:01:38;;;;;;;;;;;;;;;5.66;88.60;100342.84;5116977;28;19927;-65
2024/02/21 03:04:06;;;;;;;;;;;;;;;5.65;88.54;100336.03;5118370;28;20034;-65
2024/02/21 03:06:35;;;;;;;;;;;;;;;5.67;88.45;100334.41;5118406;28;19919;-65
2024/02/21 03:09:08;;;;;;;;;;;;;;;5.66;88.73;100333.56;5117081;28;19943;-65
2024/02/21 03:11:40;;;;;;;;;;;;;;;5.65;89.05;100336.03;5118306;28;19963;-65
2024/02/21 03:14:11;;;;;;;;;;;;;;;5.60;88.44;100338.44;5117161;28;20010;-65
2024/02/21 03:16:39;;;;;;;;;;;;;;;5.62;88.78;100346.06;5118248;28;19919;-65
2024/02/21 03:19:08;;;;;;;;;;;;;;;5.65;88.85;100336.03;5118280;28;19933;-65
2024/02/21 03:21:36;;;;;;;;;;;;;;;5.69;88.87;100327.72;5117685;28;20027;-65
2024/02/21 03:24:05;;;;;;;;;;;;;;;5.66;88.66;100335.25;5118220;28;20369;-65
2024/02/21 03:26:34;;;;;;;;;;;;;;;5.65;88.95;100336.03;5117598;28;19924;-65
2024/02/21 03:29:02;;;;;;;;;;;;;;;5.65;88.91;100338.56;5118114;28;20432;-64
2024/02/21 03:31:32;;;;;;;;;;;;;;;5.62;88.97;100336.81;5117883;28;19945;-64
2024/02/21 03:34:01;;;;;;;;;;;;;;;5.66;89.16;100343.72;5118106;28;20285;-65
2024/02/21 03:36:29;;;;;;;;;;;;;;;5.67;88.47;100344.53;5116689;28;20006;-65
2024/02/21 03:38:58;;;;;;;;;;;;;;;5.66;88.66;100337.78;5116035;28;19919;-65
2024/02/21 03:41:26;;;;;;;;;;;;;;;5.61;89.09;100334.25;5116233;28;19920;-65
2024/02/21 03:43:54;;;;;;;;;;;;;;;5.60;89.29;100335.06;5117621;28;19924;-65
2024/02/21 03:46:23;;;;;;;;;;;;;;;5.59;88.62;100331.66;5117594;28;19920;-65
2024/02/21 03:48:53;;;;;;;;;;;;;;;5.55;89.26;100334.06;5117305;28;20426;-65
2024/02/21 03:51:21;;;;;;;;;;;;;;;5.54;89.21;100332.34;5117126;28;19969;-65
2024/02/21 03:53:50;;;;;;;;;;;;;;;5.49;88.81;100324.63;5117720;28;20043;-65
2024/02/21 03:56:19;;;;;;;;;;;;;;;5.53;88.99;100326.44;5117419;28;19973;-65
2024/02/21 03:58:48;;;;;;;;;;;;;;;5.52;88.87;100328.91;5117690;28;20332;-65
2024/02/21 04:01:16;;;;;;;;;;;;;;;5.46;89.13;100327.06;5116620;28;19919;-65
2024/02/21 04:03:45;;;;;;;;;;;;;;;5.44;89.14;100331.22;5117227;28;19931;-65
2024/02/21 04:06:15;;;;;;;;;;;;;;;5.36;88.99;100328.44;5117484;28;19926;-65
2024/02/21 04:08:44;;;;;;;;;;;;;;;5.29;89.07;100321.50;5117166;28;19919;-65
2024/02/21 04:11:12;;;;;;;;;;;;;;;5.26;88.87;100326.44;5117122;28;20006;-65
2024/02/21 04:13:59;;;;;;;;;;;;;;;5.28;88.90;100314.69;5116930;28;19926;-65
2024/02/21 04:16:27;;;;;;;;;;;;;;;5.25;88.62;100314.63;5117336;27;19920;-65
2024/02/21 04:18:56;;;;;;;;;;;;;;;5.25;88.55;100318.81;5117050;28;19970;-65
2024/02/21 04:21:26;;;;;;;;;;;;;;;5.22;88.58;100319.59;5116697;28;20010;-65
2024/02/21 04:23:55;;;;;;;;;;;;;;;5.15;88.63;100322.75;5116791;28;19919;-65
2024/02/21 04:26:23;;;;;;;;;;;;;;;5.10;88.62;100316.69;5115186;28;20285;-65
2024/02/21 04:28:51;;;;;;;;;;;;;;;5.06;88.42;100312.31;5116463;28;20342;-65
2024/02/21 04:31:20;;;;;;;;;;;;;;;5.01;88.74;100310.47;5115394;28;19967;-65
2024/02/21 04:33:49;;;;;;;;;;;;;;;5.01;88.20;100313.00;5098496;28;19919;-65
2024/02/21 04:36:17;;;;;;;;;;;;;;;5.02;88.90;100304.59;5115339;28;19920;-64
2024/02/21 04:38:47;;;;;;;;;;;;;;;5.02;88.71;100305.44;5116580;28;19957;-65
2024/02/21 04:41:16;;;;;;;;;;;;;;;5.00;88.80;100304.56;5116947;28;19923;-65
2024/02/21 04:43:44;;;;;;;;;;;;;;;5.02;88.83;100307.97;5116593;28;20323;-65
2024/02/21 04:46:13;;;;;;;;;;;;;;;4.99;88.79;100314.63;5116426;28;19923;-65
2024/02/21 04:48:41;;;;;;;;;;;;;;;4.95;88.83;100318.72;5116407;28;19920;-66
2024/02/21 04:51:10;;;;;;;;;;;;;;;5.00;89.04;100311.28;5116403;28;20353;-65
2024/02/21 04:53:38;;;;;;;;;;;;;;;5.04;89.08;100303.81;5116167;28;19919;-65
2024/02/21 04:56:08;;;;;;;;;;;;;;;5.07;89.27;100308.97;5115960;28;20289;-65
2024/02/21 04:58:38;;;;;;;;;;;;;;;5.09;89.00;100304.81;5115897;28;19926;-65
2024/02/21 05:01:07;;;;;;;;;;;;;;;5.13;89.35;100305.78;5116440;28;19951;-66
2024/02/21 05:03:36;;;;;;;;;;;;;;;5.14;89.10;100310.03;5115588;28;19930;-65
2024/02/21 05:06:05;;;;;;;;;;;;;;;5.12;89.69;100302.41;5116035;28;19942;-64
2024/02/21 05:08:33;;;;;;;;;;;;;;;5.11;89.65;100305.72;5116022;28;19920;-65
2024/02/21 05:11:02;;;;;;;;;;;;;;;5.11;89.48;100303.19;5114763;28;19920;-65
2024/02/21 05:13:32;;;;;;;;;;;;;;;5.11;89.79;100302.38;5114936;28;19927;-65
2024/02/21 05:16:02;;;;;;;;;;;;;;;5.13;89.82;100304.13;5115846;28;19920;-65
2024/02/21 05:18:31;;;;;;;;;;;;;;;5.07;89.65;100303.94;5114679;28;19969;-64
2024/02/21 05:21:00;;;;;;;;;;;;;;;5.03;89.75;100296.19;5115487;28;19927;-65
2024/02/21 05:23:28;;;;;;;;;;;;;;;5.02;89.80;100300.38;5115586;28;19920;-64
2024/02/21 05:25:56;;;;;;;;;;;;;;;5.03;89.93;100303.78;5115253;28;19923;-65
2024/02/21 05:28:25;;;;;;;;;;;;;;;5.04;90.04;100298.75;5114178;28;19974;-65
2024/02/21 05:30:55;;;;;;;;;;;;;;;5.06;90.01;100303.88;5114347;28;20337;-65
2024/02/21 05:33:23;;;;;;;;;;;;;;;5.07;90.16;100303.94;5115503;28;19920;-65
2024/02/21 05:35:52;;;;;;;;;;;;;;;5.03;90.51;100307.19;5115484;28;20415;-64
2024/02/21 05:38:20;;;;;;;;;;;;;;;5.01;90.24;100298.69;5115389;28;19919;-65
2024/02/21 05:40:49;;;;;;;;;;;;;;;5.02;90.36;100310.50;5115963;28;20264;-65
2024/02/21 05:43:17;;;;;;;;;;;;;;;5.03;90.41;100312.25;5114860;28;19969;-64
2024/02/21 05:45:46;;;;;;;;;;;;;;;5.03;90.69;100311.38;5115628;28;19923;-65
2024/02/21 05:48:16;;;;;;;;;;;;;;;5.00;90.35;100311.28;5114060;28;20038;-64
2024/02/21 05:50:44;;;;;;;;;;;;;;;4.99;90.31;100309.56;5115226;28;19919;-65
2024/02/21 05:53:12;;;;;;;;;;;;;;;5.03;90.39;100309.72;5113722;28;20353;-65
2024/02/21 05:55:41;;;;;;;;;;;;;;;5.07;90.29;100319.09;5115067;28;20289;-64
2024/02/21 05:58:13;;;;;;;;;;;;;;;5.06;90.57;100311.47;5114834;28;20324;-64
2024/02/21 06:00:42;;;;;;;;;;;;;;;5.02;90.91;100310.50;5115152;28;19919;-65
2024/02/21 06:03:10;;;;;;;;;;;;;;;5.01;90.93;100313.88;5113520;28;19973;-65
2024/02/21 06:05:41;;;;;;;;;;;;;;;5.09;90.47;100316.59;5114945;28;19926;-65
2024/02/21 06:08:09;;;;;;;;;;;;;;;5.11;90.57;100320.91;5114615;28;19955;-65
2024/02/21 06:10:38;;;;;;;;;;;;;;;5.13;90.86;100314.25;5114602;28;20315;-64
2024/02/21 06:13:06;;;;;;;;;;;;;;;5.20;90.63;100321.22;5114792;28;19920;-65
2024/02/21 06:15:34;;;;;;;;;;;;;;;5.22;90.53;100322.13;5115075;28;19942;-64
2024/02/21 06:18:03;;;;;;;;;;;;;;;5.29;90.49;100318.09;5114640;28;19919;-64
2024/02/21 06:20:32;;;;;;;;;;;;;;;5.35;90.73;100316.59;5114787;28;20381;-65
2024/02/21 06:23:02;;;;;;;;;;;;;;;5.38;90.58;100314.16;5114393;28;19926;-65
2024/02/21 06:25:30;;;;;;;;;;;;;;;5.37;90.55;100314.13;5114137;28;19919;-65
2024/02/21 06:27:58;;;;;;;;;;;;;;;5.42;90.50;100313.44;5114597;28;20384;-65
2024/02/21 06:30:27;;;;;;;;;;;;;;;5.41;90.44;100311.75;5114507;28;20374;-66
2024/02/21 06:32:56;;;;;;;;;;;;;;;5.46;90.78;100319.47;5114680;28;19920;-65
2024/02/21 06:35:25;;;;;;;;;;;;;;;5.51;90.03;100319.59;5114765;28;19958;-65
2024/02/21 06:37:54;;;;;;;;;;;;;;;5.48;90.52;100322.88;5114355;28;19927;-65
2024/02/21 06:40:24;;;;;;;;;;;;;;;5.54;90.21;100324.75;5114722;28;20316;-65
2024/02/21 06:42:52;;;;;;;;;;;;;;;5.55;89.77;100329.84;5114101;28;19927;-65
2024/02/21 06:45:21;;;;;;;;;;;;;;;5.63;90.47;100317.44;5114469;28;19920;-65
2024/02/21 06:47:49;;;;;;;;;;;;;;;5.66;90.14;100322.59;5114104;28;19920;-64
2024/02/21 06:50:18;;;;;;;;;;;;;;;5.66;89.87;100320.06;5114513;28;19920;-65
2024/02/21 06:52:46;;;;;;;;;;;;;;;5.68;90.10;100316.75;5114451;28;19920;-64
2024/02/21 06:55:14;;;;;;;;;;;;;;;5.76;90.14;100319.50;5114422;28;19926;-65
2024/02/21 06:57:44;;;;;;;;;;;;;;;5.80;90.12;100327.22;5114014;28;19919;-65
2024/02/21 07:00:15;;;;;;;;;;;;;;;5.76;89.63;100325.41;5113168;28;20411;-65
2024/02/21 07:02:43;;;;;;;;;;;;;;;5.79;89.75;100319.56;5114190;28;19920;-65
2024/02/21 07:05:12;;;;;;;;;;;;;;;5.83;90.07;100322.22;5113950;28;19920;-66
2024/02/21 07:07:41;;;;;;;;;;;;;;;5.82;89.41;100329.78;5114123;28;19927;-65
2024/02/21 07:10:10;;;;;;;;;;;;;;;5.84;89.32;100326.53;5114249;28;19920;-65
2024/02/21 07:12:41;;;;;;;;;;;;;;;5.90;89.14;100333.44;5113574;28;20026;-65
2024/02/21 07:15:12;;;;;;;;;;;;;;;5.94;89.46;100320.91;5114167;28;19920;-65
2024/02/21 07:17:40;;;;;;;;;;;;;;;5.97;89.25;100326.03;5114061;28;19928;-65
2024/02/21 07:20:09;;;;;;;;;;;;;;;6.02;89.30;100328.72;5114193;28;19923;-65
2024/02/21 07:22:37;;;;;;;;;;;;;;;6.07;89.00;100327.16;5113810;28;19920;-65
2024/02/21 07:25:06;;;;;;;;;;;;;;;6.16;89.49;100324.91;5113730;28;19924;-65
2024/02/21 07:27:35;;;;;;;;;;;;;;;6.27;89.30;100326.03;5114103;28;19927;-65
2024/02/21 07:30:03;;;;;;;;;;;;;;;6.36;89.72;100326.25;5114123;28;19919;-65
2024/02/21 07:32:34;;;;;;;;;;;;;;;6.36;88.53;100333.88;5114051;28;19919;-65
2024/02/21 07:35:03;;;;;;;;;;;;;;;6.30;89.43;100328.66;5112303;28;19926;-65
2024/02/21 07:37:31;;;;;;;;;;;;;;;6.30;89.09;100321.06;5115838;28;19919;-65
2024/02/21 07:40:00;;;;;;;;;;;;;;;6.30;89.04;100326.13;5116488;28;19919;-65
2024/02/21 07:42:30;;;;;;;;;;;;;;;6.32;89.04;100327.00;5117219;28;19969;-65
2024/02/21 07:45:00;;;;;;;;;;;;;;;6.34;88.28;100332.09;5116486;28;20329;-65
2024/02/21 07:47:29;;;;;;;;;;;;;;;6.41;88.11;100329.78;5117567;28;19924;-64
2024/02/21 07:49:59;;;;;;;;;;;;;;;6.61;88.18;100328.63;5117207;28;20388;-66
2024/02/21 07:52:28;;;;;;;;;;;;;;;6.91;88.56;100322.59;5117820;28;20358;-65
2024/02/21 07:54:56;;;;;;;;;;;;;;;7.08;88.68;100312.00;5116141;28;20022;-65
2024/02/21 07:57:25;;;;;;;;;;;;;;;7.19;87.88;100319.88;5117104;28;19920;-65
2024/02/21 07:59:54;;;;;;;;;;;;;;;7.14;88.72;100316.38;5117252;28;19943;-65
2024/02/21 08:02:22;;;;;;;;;;;;;;;7.10;88.07;100325.59;5117481;28;19921;-66
2024/02/21 08:04:50;;;;;;;;;;;;;;;6.98;87.65;100330.38;5116945;28;19961;-65
2024/02/21 08:07:20;;;;;;;;;;;;;;;6.84;87.83;100330.88;5117166;28;19919;-65
2024/02/21 08:09:49;;;;;;;;;;;;;;;6.83;87.45;100324.09;5117486;28;19966;-64
2024/02/21 08:12:17;;;;;;;;;;;;;;;6.83;86.92;100327.50;5117005;28;19920;-65
2024/02/21 08:14:46;;;;;;;;;;;;;;;6.82;87.15;100319.81;5116678;28;19920;-65
2024/02/21 08:17:15;;;;;;;;;;;;;;;6.90;87.65;100314.13;5116690;28;19928;-65
2024/02/21 08:19:43;;;;;;;;;;;;;;;7.18;87.29;100318.16;5115977;28;19920;-64
2024/02/21 08:22:11;;;;;;;;;;;;;;;7.39;87.59;100308.47;5115655;28;19926;-65
2024/02/21 08:24:41;;;;;;;;;;;;;;;7.56;87.80;100302.06;5116014;28;19924;-65
2024/02/21 08:27:10;;;;;;;;;;;;;;;7.65;87.10;100307.38;5116754;28;20021;-65
2024/02/21 08:29:38;;;;;;;;;;;;;;;7.66;86.58;100309.06;5116733;28;19927;-65
2024/02/21 08:32:07;;;;;;;;;;;;;;;7.64;86.67;100310.72;5115033;28;20025;-65
2024/02/21 08:34:35;;;;;;;;;;;;;;;7.63;86.44;100300.56;5116627;28;19919;-65
2024/02/21 08:37:04;;;;;;;;;;;;;;;7.62;86.23;100304.75;5116807;28;19927;-64
2024/02/21 08:39:32;;;;;;;;;;;;;;;7.67;86.35;100305.72;5116470;28;19923;-64
2024/02/21 08:42:02;;;;;;;;;;;;;;;7.76;86.38;100305.91;5116446;28;19919;-64
2024/02/21 08:44:31;;;;;;;;;;;;;;;7.83;85.77;100296.72;5116151;28;20057;-64
2024/02/21 08:46:59;;;;;;;;;;;;;;;7.76;85.80;100290.66;5116444;28;19919;-64
2024/02/21 08:49:28;;;;;;;;;;;;;;;7.69;85.37;100293.91;5116673;28;19919;-65
2024/02/21 08:52:02;;;;;;;;;;;;;;;7.69;85.02;100288.81;5116434;28;19920;-64
2024/02/21 08:54:31;;;;;;;;;;;;;;;7.75;85.19;100288.94;5116182;28;19920;-64
2024/02/21 08:56:59;;;;;;;;;;;;;;;7.78;85.44;100294.09;5116614;28;20430;-64
2024/02/21 08:59:29;;;;;;;;;;;;;;;7.97;85.06;100280.03;5114773;28;19927;-64
2024/02/21 09:01:57;;;;;;;;;;;;;;;8.18;85.18;100279.59;5116143;28;19920;-64
2024/02/21 09:04:26;;;;;;;;;;;;;;;8.39;84.69;100280.03;5116020;28;19919;-65
2024/02/21 09:06:55;;;;;;;;;;;;;;;8.48;84.08;100275.09;5115989;28;20369;-65
2024/02/21 09:09:23;;;;;;;;;;;;;;;8.55;83.64;100276.91;5115986;27;19920;-65
2024/02/21 09:11:57;;;;;;;;;;;;;;;8.46;83.12;100276.75;5114661;28;19971;-64
2024/02/21 09:14:25;;;;;;;;;;;;;;;8.54;83.34;100267.56;5115974;28;20040;-64
2024/02/21 09:16:56;;;;;;;;;;;;;;;8.75;83.30;100262.84;5114554;28;19920;-67
2024/02/21 09:19:24;;;;;;;;;;;;;;;8.91;82.45;100262.22;5115518;28;20372;-66
2024/02/21 09:21:53;;;;;;;;;;;;;;;8.97;81.48;100257.25;5115880;28;20014;-66
2024/02/21 09:24:21;;;;;;;;;;;;;;;8.98;79.65;100258.94;5115016;28;19927;-65
2024/02/21 09:26:50;;;;;;;;;;;;;;;9.19;79.70;100264.34;5113918;28;19927;-65
2024/02/21 09:29:19;;;;;;;;;;;;;;;9.30;79.32;100261.94;5115597;28;19920;-66
2024/02/21 09:31:52;;;;;;;;;;;;;;;9.47;78.44;100257.06;5115678;28;20373;-65
2024/02/21 09:34:22;;;;;;;;;;;;;;;9.52;77.76;100250.34;5115438;28;20333;-66
2024/02/21 09:36:50;;;;;;;;;;;;;;;9.74;78.21;100254.88;5115572;28;19923;-65
2024/02/21 09:39:19;;;;;;;;;;;;;;;9.77;76.79;100260.84;5114339;28;19919;-64
2024/02/21 09:41:52;;;;;;;;;;;;;;;9.86;76.26;100257.56;5115687;28;19964;-65
2024/02/21 09:44:20;;;;;;;;;;;;;;;9.82;76.21;100263.44;5113467;28;19963;-66
2024/02/21 09:46:53;;;;;;;;;;;;;;;9.96;76.10;100261.91;5115203;28;19919;-65
2024/02/21 09:49:28;;;;;;;;;;;;;;;10.03;75.72;100256.03;5115347;28;19922;-65
2024/02/21 09:51:58;;;;;;;;;;;;;;;10.04;75.04;100261.16;5115156;28;19919;-66
2024/02/21 09:54:29;;;;;;;;;;;;;;;10.07;74.07;100262.91;5115242;28;19920;-65
2024/02/21 09:56:57;;;;;;;;;;;;;;;10.16;74.66;100250.25;5113856;28;19969;-65
2024/02/21 09:59:25;;;;;;;;;;;;;;;10.27;74.27;100261.41;5114594;28;19988;-66
2024/02/21 10:01:54;;;;;;;;;;;;;;;10.36;73.43;100258.97;5115016;28;20277;-65
2024/02/21 10:04:24;;;;;;;;;;;;;;;10.33;73.33;100252.97;5114676;28;19919;-65
2024/02/21 10:06:55;;;;;;;;;;;;;;;10.39;72.45;100248.78;5114930;28;19920;-64
2024/02/21 10:09:24;;;;;;;;;;;;;;;10.48;71.85;100245.47;5114874;28;19919;-66
2024/02/21 10:11:52;;;;;;;;;;;;;;;10.58;72.35;100245.53;5115204;28;20332;-65
2024/02/21 10:14:21;;;;;;;;;;;;;;;10.78;71.56;100248.25;5114636;28;19924;-65
2024/02/21 10:16:49;;;;;;;;;;;;;;;10.75;70.64;100246.53;5114490;28;20356;-66
2024/02/21 10:19:18;;;;;;;;;;;;;;;10.97;71.33;100244.13;5114857;28;19926;-65
2024/02/21 10:22:07;;;;;;;;;;;;;;;11.18;70.87;100234.91;5114442;28;19923;-66
2024/02/21 10:24:40;;;;;;;;;;;;;;;11.30;69.64;100239.25;5114137;28;19927;-65
2024/02/21 10:27:10;;;;;;;;;;;;;;;11.43;68.97;100223.09;5114432;28;20269;-65
2024/02/21 10:29:41;;;;;;;;;;;;;;;11.40;68.44;100220.53;5114818;28;19931;-65
2024/02/21 10:32:10;;;;;;;;;;;;;;;11.26;68.49;100222.16;5114881;28;20458;-66
2024/02/21 10:34:40;;;;;;;;;;;;;;;11.05;69.21;100214.38;5114585;28;19927;-65
2024/02/21 10:37:10;;;;;;;;;;;;;;;10.86;70.05;100215.13;5114635;28;19965;-65
2024/02/21 10:39:40;;;;;;;;;;;;;;;10.65;69.54;100211.56;5114547;28;19920;-65
2024/02/21 10:42:11;;;;;;;;;;;;;;;10.51;69.52;100218.25;5114841;28;19973;-66
2024/02/21 10:44:42;;;;;;;;;;;;;;;10.38;70.24;100215.59;5114345;28;20361;-65
2024/02/21 10:47:12;;;;;;;;;;;;;;;10.38;70.67;100208.81;5114644;28;19951;-65
2024/02/21 10:49:44;;;;;;;;;;;;;;;10.43;71.52;100199.50;5114321;28;19927;-66
2024/02/21 10:52:15;;;;;;;;;;;;;;;10.56;71.36;100201.28;5113126;28;19920;-66
2024/02/21 10:54:55;;;;;;;;;;;;;;;10.54;71.19;100187.66;5114363;28;19923;-65
2024/02/21 10:57:24;;;;;;;;;;;;;;;10.54;71.37;100191.91;5114436;28;19923;-65
2024/02/21 10:59:54;;;;;;;;;;;;;;;10.48;71.68;100190.19;5114480;28;19920;-65
2024/02/21 11:02:23;;;;;;;;;;;;;;;10.48;71.98;100192.75;5114024;28;19962;-66
2024/02/21 11:04:53;;;;;;;;;;;;;;;10.49;72.23;100188.47;5114010;28;20357;-64
2024/02/21 11:07:22;;;;;;;;;;;;;;;10.51;72.40;100187.63;5114347;28;19924;-65
2024/02/21 11:09:55;;;;;;;;;;;;;;;10.64;72.89;100179.22;5112862;28;19933;-64
2024/02/21 11:12:25;;;;;;;;;;;;;;;10.86;73.08;100164.06;5115819;28;19968;-65
2024/02/21 11:14:54;;;;;;;;;;;;;;;11.05;72.27;100160.75;5117002;28;19930;-66
2024/02/21 11:17:25;;;;;;;;;;;;;;;11.36;71.55;100162.59;5118223;28;19967;-66
2024/02/21 11:19:54;;;;;;;;;;;;;;;11.65;70.82;100155.88;5116915;28;19969;-66
2024/02/21 11:22:24;;;;;;;;;;;;;;;11.93;69.77;100151.69;5118325;28;20444;-65
2024/02/21 11:24:55;;;;;;;;;;;;;;;11.82;68.59;100153.38;5117690;28;20018;-66
2024/02/21 11:27:25;;;;;;;;;;;;;;;11.66;68.17;100155.00;5118505;28;19931;-66
2024/02/21 11:29:56;;;;;;;;;;;;;;;11.55;67.96;100148.16;5117674;28;19920;-65
2024/02/21 11:32:26;;;;;;;;;;;;;;;11.55;68.62;100143.91;5117803;28;20006;-66
2024/02/21 11:34:55;;;;;;;;;;;;;;;11.50;68.52;100150.72;5117823;28;19924;-65
2024/02/21 11:37:26;;;;;;;;;;;;;;;11.45;68.92;100142.16;5116453;28;19924;-66
2024/02/21 11:39:56;;;;;;;;;;;;;;;11.32;69.10;100141.31;5117891;28;19920;-65
2024/02/21 11:42:26;;;;;;;;;;;;;;;11.09;68.32;100142.88;5117399;28;19919;-65
2024/02/21 11:44:56;;;;;;;;;;;;;;;11.01;68.69;100133.50;5111067;28;19924;-66
2024/02/21 11:47:25;;;;;;;;;;;;;;;10.92;69.30;100141.13;5106023;28;19972;-65
2024/02/21 11:49:54;;;;;;;;;;;;;;;10.82;69.73;100139.34;5106248;28;19995;-65
2024/02/21 11:52:25;;;;;;;;;;;;;;;10.74;70.01;100131.66;5106380;28;19930;-66
2024/02/21 11:55:04;;;;;;;;;;;;;;;10.67;70.26;100133.31;5104676;28;20353;-65
2024/02/21 11:57:35;;;;;;;;;;;;;;;10.66;70.22;100136.69;5106020;28;20014;-66
2024/02/21 12:00:13;;;;;;;;;;;;;;;10.65;70.11;100131.59;5117915;28;19969;-66
2024/02/21 12:02:41;;;;;;;;;;;;;;;10.60;70.50;100130.72;5116614;28;20354;-65
2024/02/21 12:05:10;;;;;;;;;;;;;;;10.64;70.81;100122.22;5116564;28;19920;-65
2024/02/21 12:07:40;;;;;;;;;;;;;;;10.76;70.42;100120.59;5115952;28;19968;-66
2024/02/21 12:10:11;;;;;;;;;;;;;;;10.85;70.39;100121.47;5116845;28;20430;-65
2024/02/21 12:12:39;;;;;;;;;;;;;;;10.92;70.87;100113.03;5115981;28;19965;-66
2024/02/21 12:15:08;;;;;;;;;;;;;;;11.00;71.01;100108.78;5115869;28;20418;-66
2024/02/21 12:17:37;;;;;;;;;;;;;;;11.05;70.87;100110.53;5117022;28;19927;-65
2024/02/21 12:20:11;;;;;;;;;;;;;;;10.99;70.05;100100.25;5106659;28;19966;-65
2024/02/21 12:22:43;;;;;;;;;;;;;;;10.96;70.64;100096.88;5098477;28;19924;-65
2024/02/21 12:25:22;;;;;;;;;;;;;;;10.97;70.82;100086.63;5116642;28;19919;-66
2024/02/21 12:27:51;;;;;;;;;;;;;;;11.00;70.93;100090.91;5117033;28;19920;-65
2024/02/21 12:30:20;;;;;;;;;;;;;;;10.94;70.66;100086.63;5116928;28;20373;-65
2024/02/21 12:32:49;;;;;;;;;;;;;;;10.88;69.96;100080.63;5114057;28;19927;-66
2024/02/21 12:35:18;;;;;;;;;;;;;;;10.88;69.89;100085.75;5104309;28;20015;-66
2024/02/21 12:37:47;;;;;;;;;;;;;;;10.95;69.44;100069.59;5096523;28;19955;-66
2024/02/21 12:40:16;;;;;;;;;;;;;;;11.00;69.30;100070.47;5096248;28;19966;-65
2024/02/21 12:42:46;;;;;;;;;;;;;;;11.09;69.04;100062.84;5094810;28;20362;-65
2024/02/21 12:45:16;;;;;;;;;;;;;;;11.26;68.76;100063.75;5096146;28;19924;-66
2024/02/21 12:47:44;;;;;;;;;;;;;;;11.27;68.58;100060.34;5095969;28;19924;-66
2024/02/21 12:50:14;;;;;;;;;;;;;;;11.12;68.15;100050.94;5096377;28;19942;-64
2024/02/21 12:52:43;;;;;;;;;;;;;;;11.00;68.02;100052.59;5096044;28;19920;-66
2024/02/21 12:55:13;;;;;;;;;;;;;;;10.93;68.09;100048.31;5095533;28;20011;-66